Time;durP1;ratioP1;P1;durP2;ratioP2;P2;SDS_P1;SDS_P2;PMS_P1;PMS_P2;Temp;Humidity;BMP_temperature;BMP_pressure;BME280_temperature;BME280_humidity;BME280_pressure;Samples;Min_cycle;Max_cycle;Signal;HPM_P1;HPM_P2
2021/07/10 00:01:36;;;;;;;4.83;4.43;;;;;;;;;;475125;250;27493;-73
2021/07/10 00:03:39;;;;;;;4.90;4.50;;;;;;;;;;475119;250;27951;-73
2021/07/10 00:05:40;;;;;;;4.90;4.40;;;;;;;;;;475069;250;27540;-73
2021/07/10 00:07:42;;;;;;;5.73;5.23;;;;;;;;;;475064;250;27480;-73
2021/07/10 00:09:44;;;;;;;4.73;4.33;;;;;;;;;;475128;250;27568;-73
2021/07/10 00:11:46;;;;;;;5.40;4.90;;;;;;;;;;475105;250;28032;-73
2021/07/10 00:13:48;;;;;;;5.23;4.83;;;;;;;;;;475111;248;27614;-73
2021/07/10 00:15:51;;;;;;;4.97;4.50;;;;;;;;;;475122;250;27532;-73
2021/07/10 00:17:53;;;;;;;4.93;4.53;;;;;;;;;;475126;250;28036;-73
2021/07/10 00:19:55;;;;;;;5.13;4.70;;;;;;;;;;475127;250;27577;-73
2021/07/10 00:21:57;;;;;;;5.10;4.60;;;;;;;;;;475127;250;27460;-73
2021/07/10 00:23:59;;;;;;;5.30;4.80;;;;;;;;;;475119;250;27456;-73
2021/07/10 00:26:01;;;;;;;5.10;4.67;;;;;;;;;;475100;250;27596;-73
2021/07/10 00:28:03;;;;;;;5.13;4.73;;;;;;;;;;475108;250;27449;-72
2021/07/10 00:30:05;;;;;;;5.83;4.90;;;;;;;;;;475103;250;27658;-73
2021/07/10 00:32:07;;;;;;;4.93;4.53;;;;;;;;;;475118;250;27453;-73
2021/07/10 00:34:10;;;;;;;5.40;4.90;;;;;;;;;;475128;250;27477;-73
2021/07/10 00:36:12;;;;;;;5.03;4.63;;;;;;;;;;475116;250;27640;-73
2021/07/10 00:38:14;;;;;;;5.13;4.70;;;;;;;;;;475115;250;27928;-73
2021/07/10 00:40:16;;;;;;;7.20;5.23;;;;;;;;;;475119;250;27494;-73
2021/07/10 00:42:21;;;;;;;5.17;4.70;;;;;;;;;;475133;250;27417;-73
2021/07/10 00:44:20;;;;;;;5.20;4.80;;;;;;;;;;474919;250;27625;-73
2021/07/10 00:46:22;;;;;;;5.37;4.97;;;;;;;;;;475121;250;27464;-73
2021/07/10 00:48:24;;;;;;;5.23;4.83;;;;;;;;;;475121;250;27540;-73
2021/07/10 00:50:26;;;;;;;6.00;4.90;;;;;;;;;;475091;250;27575;-73
2021/07/10 00:52:29;;;;;;;4.93;4.53;;;;;;;;;;475122;250;27679;-73
2021/07/10 00:54:32;;;;;;;4.70;4.30;;;;;;;;;;475124;246;27651;-73
2021/07/10 00:56:33;;;;;;;5.47;4.97;;;;;;;;;;475051;250;27876;-73
2021/07/10 00:58:35;;;;;;;4.30;4.00;;;;;;;;;;475093;250;28007;-73
2021/07/10 01:00:37;;;;;;;4.90;4.50;;;;;;;;;;475117;250;28651;-73
2021/07/10 01:02:39;;;;;;;4.60;4.20;;;;;;;;;;475103;250;27437;-73
2021/07/10 01:04:41;;;;;;;4.27;3.97;;;;;;;;;;475094;250;27529;-72
2021/07/10 01:06:43;;;;;;;3.97;3.67;;;;;;;;;;475100;250;28970;-73
2021/07/10 01:08:47;;;;;;;4.73;4.33;;;;;;;;;;475126;250;27536;-72
2021/07/10 01:10:48;;;;;;;4.30;4.00;;;;;;;;;;474963;250;27971;-73
2021/07/10 01:12:50;;;;;;;4.30;4.00;;;;;;;;;;475100;250;27457;-73
2021/07/10 01:14:52;;;;;;;4.83;4.43;;;;;;;;;;475083;250;27607;-73
2021/07/10 01:16:54;;;;;;;4.47;4.17;;;;;;;;;;475106;250;27586;-73
2021/07/10 01:18:56;;;;;;;4.97;4.47;;;;;;;;;;475067;250;27630;-73
2021/07/10 01:20:58;;;;;;;3.80;3.50;;;;;;;;;;475120;250;27573;-73
2021/07/10 01:23:00;;;;;;;4.13;3.83;;;;;;;;;;475114;250;29320;-74
2021/07/10 01:25:02;;;;;;;4.40;4.10;;;;;;;;;;475099;250;27961;-73
2021/07/10 01:27:05;;;;;;;4.43;4.03;;;;;;;;;;475118;250;28159;-73
2021/07/10 01:29:07;;;;;;;4.20;3.87;;;;;;;;;;475101;250;28517;-73
2021/07/10 01:31:09;;;;;;;4.47;4.10;;;;;;;;;;475085;250;28623;-73
2021/07/10 01:33:11;;;;;;;4.00;3.70;;;;;;;;;;475093;250;28925;-73
2021/07/10 01:35:13;;;;;;;3.90;3.60;;;;;;;;;;475083;250;28567;-73
2021/07/10 01:37:15;;;;;;;3.80;3.50;;;;;;;;;;475120;250;28383;-72
2021/07/10 01:39:17;;;;;;;4.47;4.07;;;;;;;;;;475102;250;28403;-73
2021/07/10 01:41:19;;;;;;;4.27;3.97;;;;;;;;;;475109;250;28754;-73
2021/07/10 01:43:22;;;;;;;4.37;4.07;;;;;;;;;;475097;250;28091;-73
2021/07/10 01:45:24;;;;;;;3.60;3.40;;;;;;;;;;475108;250;28215;-73
2021/07/10 01:47:26;;;;;;;4.57;4.27;;;;;;;;;;475107;250;28245;-73
2021/07/10 01:49:28;;;;;;;4.17;3.87;;;;;;;;;;475103;250;28817;-73
2021/07/10 01:51:30;;;;;;;3.97;3.67;;;;;;;;;;475083;250;28360;-73
2021/07/10 01:53:32;;;;;;;4.23;3.90;;;;;;;;;;475086;250;28506;-73
2021/07/10 01:55:34;;;;;;;4.00;3.70;;;;;;;;;;475058;250;29338;-73
2021/07/10 01:57:36;;;;;;;5.30;4.80;;;;;;;;;;475101;250;28470;-73
2021/07/10 01:59:38;;;;;;;4.43;4.03;;;;;;;;;;475122;250;28452;-73
2021/07/10 02:01:41;;;;;;;4.43;4.03;;;;;;;;;;475135;250;28792;-73
2021/07/10 02:03:43;;;;;;;5.40;4.43;;;;;;;;;;475111;250;28780;-73
2021/07/10 02:05:45;;;;;;;4.90;4.50;;;;;;;;;;475059;250;28892;-73
2021/07/10 02:07:47;;;;;;;4.30;4.00;;;;;;;;;;475088;250;27980;-73
2021/07/10 02:09:49;;;;;;;5.20;4.77;;;;;;;;;;475102;250;28363;-73
2021/07/10 02:11:51;;;;;;;5.10;4.70;;;;;;;;;;475104;250;28788;-73
2021/07/10 02:13:53;;;;;;;4.77;4.20;;;;;;;;;;475091;250;28376;-72
2021/07/10 02:15:55;;;;;;;5.10;4.70;;;;;;;;;;475107;250;28572;-73
2021/07/10 02:17:58;;;;;;;5.13;4.70;;;;;;;;;;475106;250;28392;-73
2021/07/10 02:20:00;;;;;;;4.87;4.47;;;;;;;;;;475107;250;28370;-73
2021/07/10 02:22:02;;;;;;;4.83;4.43;;;;;;;;;;475095;250;28414;-73
2021/07/10 02:24:04;;;;;;;4.87;4.47;;;;;;;;;;475104;250;28564;-73
2021/07/10 02:26:06;;;;;;;4.10;3.80;;;;;;;;;;475102;250;28337;-73
2021/07/10 02:28:08;;;;;;;4.83;4.43;;;;;;;;;;475117;250;28029;-73
2021/07/10 02:30:10;;;;;;;4.83;4.43;;;;;;;;;;475075;249;28592;-73
2021/07/10 02:32:12;;;;;;;4.63;4.23;;;;;;;;;;475082;250;28802;-73
2021/07/10 02:34:15;;;;;;;4.70;4.30;;;;;;;;;;475076;250;28695;-73
2021/07/10 02:36:17;;;;;;;4.10;3.80;;;;;;;;;;475087;250;28863;-73
2021/07/10 02:38:19;;;;;;;4.03;3.73;;;;;;;;;;475048;250;28758;-72
2021/07/10 02:40:21;;;;;;;4.23;3.93;;;;;;;;;;475101;250;28610;-73
2021/07/10 02:42:23;;;;;;;4.33;4.03;;;;;;;;;;475090;250;28179;-73
2021/07/10 02:44:25;;;;;;;4.70;4.30;;;;;;;;;;475087;250;28403;-73
2021/07/10 02:46:27;;;;;;;4.10;3.80;;;;;;;;;;475081;250;28402;-72
2021/07/10 02:48:29;;;;;;;4.77;4.37;;;;;;;;;;475112;250;27584;-72
2021/07/10 02:50:32;;;;;;;5.23;4.53;;;;;;;;;;475079;250;28799;-73
2021/07/10 02:52:34;;;;;;;4.80;4.40;;;;;;;;;;475104;250;29023;-74
2021/07/10 02:54:36;;;;;;;4.70;4.30;;;;;;;;;;475124;250;28053;-73
2021/07/10 02:56:38;;;;;;;6.17;4.13;;;;;;;;;;475100;250;28143;-73
2021/07/10 02:58:40;;;;;;;4.60;4.13;;;;;;;;;;475077;250;28477;-73
2021/07/10 03:00:42;;;;;;;4.40;4.00;;;;;;;;;;475089;250;28242;-73
2021/07/10 03:02:44;;;;;;;4.47;4.07;;;;;;;;;;475085;250;28340;-73
2021/07/10 03:04:46;;;;;;;4.80;4.40;;;;;;;;;;475090;250;28480;-73
2021/07/10 03:06:48;;;;;;;5.00;4.50;;;;;;;;;;475096;250;28371;-74
2021/07/10 03:08:51;;;;;;;5.23;4.60;;;;;;;;;;475078;250;28238;-72
2021/07/10 03:10:53;;;;;;;5.27;4.50;;;;;;;;;;475100;250;28478;-73
2021/07/10 03:12:55;;;;;;;4.60;4.20;;;;;;;;;;475098;250;28236;-73
2021/07/10 03:14:57;;;;;;;4.73;4.33;;;;;;;;;;475096;250;28501;-73
2021/07/10 03:16:59;;;;;;;4.40;4.00;;;;;;;;;;475089;250;28164;-73
2021/07/10 03:19:01;;;;;;;4.70;4.30;;;;;;;;;;475087;250;28395;-73
2021/07/10 03:21:03;;;;;;;4.90;4.37;;;;;;;;;;475072;250;28736;-73
2021/07/10 03:23:05;;;;;;;4.93;4.43;;;;;;;;;;475081;250;28348;-73
2021/07/10 03:25:08;;;;;;;5.53;4.70;;;;;;;;;;475095;250;28360;-73
2021/07/10 03:27:10;;;;;;;5.60;4.40;;;;;;;;;;475079;250;28313;-73
2021/07/10 03:29:12;;;;;;;4.50;4.10;;;;;;;;;;475028;250;28368;-73
2021/07/10 03:31:14;;;;;;;4.93;4.53;;;;;;;;;;475114;250;28348;-73
2021/07/10 03:33:16;;;;;;;4.93;4.53;;;;;;;;;;475140;250;28410;-73
2021/07/10 03:35:18;;;;;;;5.60;5.10;;;;;;;;;;475126;250;28485;-73
2021/07/10 03:37:20;;;;;;;4.27;3.87;;;;;;;;;;475113;250;28392;-73
2021/07/10 03:39:22;;;;;;;5.40;4.90;;;;;;;;;;475125;250;28556;-73
2021/07/10 03:41:25;;;;;;;5.37;4.97;;;;;;;;;;475129;250;28046;-73
2021/07/10 03:43:27;;;;;;;4.67;4.27;;;;;;;;;;475119;250;28247;-73
2021/07/10 03:45:29;;;;;;;4.53;4.13;;;;;;;;;;475122;250;28305;-74
2021/07/10 03:47:31;;;;;;;3.77;3.47;;;;;;;;;;475127;250;28469;-73
2021/07/10 03:49:33;;;;;;;4.47;4.07;;;;;;;;;;475098;250;28449;-73
2021/07/10 03:51:35;;;;;;;5.00;4.47;;;;;;;;;;475106;250;28342;-73
2021/07/10 03:53:37;;;;;;;4.53;4.20;;;;;;;;;;475107;250;28652;-73
2021/07/10 03:55:39;;;;;;;4.60;4.20;;;;;;;;;;475109;250;28169;-73
2021/07/10 03:57:41;;;;;;;5.20;4.70;;;;;;;;;;475030;250;28147;-73
2021/07/10 03:59:44;;;;;;;5.20;4.70;;;;;;;;;;475009;250;28283;-72
2021/07/10 04:01:46;;;;;;;5.77;4.53;;;;;;;;;;475035;250;28344;-73
2021/07/10 04:03:48;;;;;;;4.40;4.00;;;;;;;;;;475033;250;27807;-73
2021/07/10 04:05:50;;;;;;;4.47;4.13;;;;;;;;;;475018;250;28079;-73
2021/07/10 04:07:52;;;;;;;4.30;4.00;;;;;;;;;;475061;250;28596;-73
2021/07/10 04:09:54;;;;;;;4.70;4.30;;;;;;;;;;474992;250;28483;-74
2021/07/10 04:11:56;;;;;;;4.17;3.83;;;;;;;;;;475077;250;28414;-73
2021/07/10 04:13:58;;;;;;;4.23;3.93;;;;;;;;;;475124;250;28401;-73
2021/07/10 04:16:01;;;;;;;4.70;4.30;;;;;;;;;;475104;250;28499;-73
2021/07/10 04:18:03;;;;;;;4.00;3.70;;;;;;;;;;475052;250;28695;-73
2021/07/10 04:20:05;;;;;;;4.33;3.97;;;;;;;;;;475126;250;28440;-73
2021/07/10 04:22:07;;;;;;;4.50;4.13;;;;;;;;;;475121;250;28567;-73
2021/07/10 04:24:09;;;;;;;4.63;4.07;;;;;;;;;;475129;246;28899;-73
2021/07/10 04:26:11;;;;;;;4.57;4.17;;;;;;;;;;475079;250;28355;-73
2021/07/10 04:28:13;;;;;;;4.90;4.50;;;;;;;;;;475053;250;28937;-73
2021/07/10 04:30:15;;;;;;;4.00;3.70;;;;;;;;;;475107;250;27675;-73
2021/07/10 04:32:18;;;;;;;4.57;4.17;;;;;;;;;;475122;250;28916;-73
2021/07/10 04:34:20;;;;;;;5.00;4.60;;;;;;;;;;475116;250;27915;-73
2021/07/10 04:36:22;;;;;;;5.17;4.77;;;;;;;;;;475064;250;28390;-73
2021/07/10 04:38:24;;;;;;;5.40;4.77;;;;;;;;;;475112;250;27952;-73
2021/07/10 04:40:26;;;;;;;5.00;4.60;;;;;;;;;;475110;250;28594;-73
2021/07/10 04:42:28;;;;;;;4.80;4.40;;;;;;;;;;475136;250;28095;-73
2021/07/10 04:44:31;;;;;;;5.50;5.07;;;;;;;;;;475118;250;28004;-73
2021/07/10 04:46:32;;;;;;;4.90;4.37;;;;;;;;;;475080;250;28808;-72
2021/07/10 04:48:34;;;;;;;5.10;4.70;;;;;;;;;;475112;250;28363;-73
2021/07/10 04:50:37;;;;;;;4.77;4.37;;;;;;;;;;475089;250;28792;-73
2021/07/10 04:52:42;;;;;;;4.50;4.10;;;;;;;;;;475083;250;27671;-73
2021/07/10 04:54:41;;;;;;;5.10;4.70;;;;;;;;;;474934;250;28575;-73
2021/07/10 04:56:43;;;;;;;5.13;4.67;;;;;;;;;;475134;250;27421;-73
2021/07/10 04:58:45;;;;;;;5.30;4.80;;;;;;;;;;475114;250;27989;-73
2021/07/10 05:00:49;;;;;;;4.77;4.40;;;;;;;;;;475133;250;27442;-73
2021/07/10 05:02:49;;;;;;;5.20;4.80;;;;;;;;;;475024;250;27552;-73
2021/07/10 05:04:51;;;;;;;4.97;4.47;;;;;;;;;;475100;250;27453;-73
2021/07/10 05:06:54;;;;;;;5.40;4.90;;;;;;;;;;475091;248;27599;-73
2021/07/10 05:08:56;;;;;;;5.20;4.70;;;;;;;;;;475108;250;27454;-73
2021/07/10 05:10:58;;;;;;;5.10;4.60;;;;;;;;;;475085;250;27571;-73
2021/07/10 05:13:00;;;;;;;4.80;4.40;;;;;;;;;;475102;250;27588;-73
2021/07/10 05:15:02;;;;;;;4.83;4.43;;;;;;;;;;475092;250;27596;-73
2021/07/10 05:17:04;;;;;;;4.60;4.10;;;;;;;;;;475044;250;27579;-73
2021/07/10 05:19:06;;;;;;;6.67;5.13;;;;;;;;;;475084;250;27472;-73
2021/07/10 05:21:08;;;;;;;5.40;4.97;;;;;;;;;;475110;250;27536;-73
2021/07/10 05:23:10;;;;;;;4.60;4.20;;;;;;;;;;475090;250;27551;-73
2021/07/10 05:25:13;;;;;;;8.50;5.37;;;;;;;;;;475078;250;27443;-73
2021/07/10 05:27:15;;;;;;;5.47;4.93;;;;;;;;;;475114;250;27442;-73
2021/07/10 05:29:17;;;;;;;4.50;4.20;;;;;;;;;;475131;250;27539;-73
2021/07/10 05:31:19;;;;;;;4.87;4.33;;;;;;;;;;475114;250;27468;-73
2021/07/10 05:33:21;;;;;;;4.93;4.53;;;;;;;;;;475108;250;27414;-74
2021/07/10 05:35:23;;;;;;;4.20;3.90;;;;;;;;;;475103;250;27429;-73
2021/07/10 05:37:25;;;;;;;4.87;4.47;;;;;;;;;;475110;250;27417;-73
2021/07/10 05:39:27;;;;;;;5.07;4.67;;;;;;;;;;474727;250;27476;-73
2021/07/10 05:41:29;;;;;;;4.50;4.10;;;;;;;;;;475002;250;27475;-73
2021/07/10 05:43:32;;;;;;;4.97;4.57;;;;;;;;;;474899;250;27434;-73
2021/07/10 05:45:34;;;;;;;4.87;4.47;;;;;;;;;;474901;250;27420;-73
2021/07/10 05:47:36;;;;;;;4.77;4.37;;;;;;;;;;475087;250;27533;-73
2021/07/10 05:49:38;;;;;;;4.63;4.23;;;;;;;;;;475043;250;27444;-73
2021/07/10 05:51:40;;;;;;;5.93;4.27;;;;;;;;;;475086;250;27528;-73
2021/07/10 05:53:42;;;;;;;4.33;3.93;;;;;;;;;;475107;250;27441;-73
2021/07/10 05:55:44;;;;;;;6.00;5.10;;;;;;;;;;475110;250;27540;-73
2021/07/10 05:57:46;;;;;;;5.23;4.83;;;;;;;;;;475126;250;27458;-74
2021/07/10 05:59:48;;;;;;;5.20;4.80;;;;;;;;;;475104;250;27468;-73
2021/07/10 06:01:51;;;;;;;5.30;4.90;;;;;;;;;;475085;250;27459;-73
2021/07/10 06:03:53;;;;;;;5.27;4.87;;;;;;;;;;475072;250;27472;-73
2021/07/10 06:05:55;;;;;;;5.50;5.10;;;;;;;;;;475105;250;27540;-73
2021/07/10 06:07:57;;;;;;;5.67;5.23;;;;;;;;;;475121;250;27468;-73
2021/07/10 06:09:59;;;;;;;6.80;4.87;;;;;;;;;;475093;250;27465;-73
2021/07/10 06:12:01;;;;;;;7.40;5.53;;;;;;;;;;475074;250;27577;-74
2021/07/10 06:14:08;;;;;;;6.30;5.80;;;;;;;;;;475103;250;27465;-73
2021/07/10 06:16:05;;;;;;;5.23;4.83;;;;;;;;;;474806;250;27484;-73
2021/07/10 06:18:08;;;;;;;6.90;6.30;;;;;;;;;;475096;250;27464;-73
2021/07/10 06:20:10;;;;;;;5.73;5.30;;;;;;;;;;475118;250;27647;-74
2021/07/10 06:22:12;;;;;;;6.33;5.83;;;;;;;;;;475088;250;27449;-73
2021/07/10 06:24:14;;;;;;;5.30;4.90;;;;;;;;;;475074;250;27516;-73
2021/07/10 06:26:16;;;;;;;5.73;5.30;;;;;;;;;;475116;250;27413;-73
2021/07/10 06:28:18;;;;;;;5.30;4.90;;;;;;;;;;475118;250;27426;-73
2021/07/10 06:30:20;;;;;;;5.67;5.20;;;;;;;;;;475128;250;27516;-74
2021/07/10 06:32:22;;;;;;;4.63;4.33;;;;;;;;;;475105;250;27437;-73
2021/07/10 06:34:24;;;;;;;5.60;5.10;;;;;;;;;;475107;250;27501;-73
2021/07/10 06:36:27;;;;;;;5.80;5.33;;;;;;;;;;475109;246;27425;-73
2021/07/10 06:38:29;;;;;;;5.50;5.00;;;;;;;;;;475124;250;27409;-73
2021/07/10 06:40:31;;;;;;;4.83;4.43;;;;;;;;;;475078;250;27507;-73
2021/07/10 06:42:33;;;;;;;6.40;4.50;;;;;;;;;;475067;250;27532;-73
2021/07/10 06:44:35;;;;;;;5.60;5.17;;;;;;;;;;475097;250;27574;-74
2021/07/10 06:46:37;;;;;;;4.60;4.20;;;;;;;;;;475088;250;27433;-73
2021/07/10 06:48:39;;;;;;;5.20;4.80;;;;;;;;;;475103;250;27476;-73
2021/07/10 06:50:42;;;;;;;5.67;5.17;;;;;;;;;;475088;250;27405;-73
2021/07/10 06:52:43;;;;;;;5.60;5.10;;;;;;;;;;475068;250;27428;-73
2021/07/10 06:54:46;;;;;;;5.07;4.67;;;;;;;;;;475106;250;27525;-73
2021/07/10 06:56:48;;;;;;;5.83;5.33;;;;;;;;;;475082;250;27873;-73
2021/07/10 06:58:50;;;;;;;5.37;4.87;;;;;;;;;;475117;250;27482;-74
2021/07/10 07:00:52;;;;;;;5.13;4.73;;;;;;;;;;475107;250;27456;-74
2021/07/10 07:02:54;;;;;;;5.87;5.37;;;;;;;;;;475070;250;27456;-74
2021/07/10 07:04:56;;;;;;;5.10;4.70;;;;;;;;;;475101;250;27540;-74
2021/07/10 07:06:58;;;;;;;5.60;5.20;;;;;;;;;;475122;250;27465;-73
2021/07/10 07:09:00;;;;;;;5.47;5.07;;;;;;;;;;475153;250;27460;-73
2021/07/10 07:11:02;;;;;;;5.13;4.73;;;;;;;;;;475128;250;27456;-74
2021/07/10 07:13:05;;;;;;;6.53;5.93;;;;;;;;;;475115;250;27453;-74
2021/07/10 07:15:07;;;;;;;6.17;5.60;;;;;;;;;;475106;250;27468;-74
2021/07/10 07:17:09;;;;;;;5.30;4.90;;;;;;;;;;475101;250;27493;-73
2021/07/10 07:19:11;;;;;;;5.40;5.00;;;;;;;;;;475112;250;27579;-74
2021/07/10 07:21:13;;;;;;;5.60;5.10;;;;;;;;;;475106;250;27580;-73
2021/07/10 07:23:15;;;;;;;6.27;5.60;;;;;;;;;;475105;250;27444;-73
2021/07/10 07:25:17;;;;;;;5.97;5.37;;;;;;;;;;475123;250;27487;-73
2021/07/10 07:27:19;;;;;;;5.73;5.20;;;;;;;;;;475120;250;27555;-73
2021/07/10 07:29:21;;;;;;;5.33;4.77;;;;;;;;;;475222;250;27533;-74
2021/07/10 07:31:24;;;;;;;5.10;4.70;;;;;;;;;;475119;250;27485;-73
2021/07/10 07:33:27;;;;;;;5.47;5.07;;;;;;;;;;475127;250;27425;-74
2021/07/10 07:35:28;;;;;;;5.47;5.03;;;;;;;;;;475029;250;27433;-73
2021/07/10 07:37:30;;;;;;;5.60;5.17;;;;;;;;;;475119;250;27560;-74
2021/07/10 07:39:32;;;;;;;6.70;5.30;;;;;;;;;;475138;250;27421;-73
2021/07/10 07:41:34;;;;;;;5.20;4.80;;;;;;;;;;475126;250;27524;-73
2021/07/10 07:43:36;;;;;;;4.47;4.13;;;;;;;;;;475134;250;27438;-74
2021/07/10 07:45:38;;;;;;;5.13;4.70;;;;;;;;;;475128;250;27523;-74
2021/07/10 07:47:41;;;;;;;4.80;4.40;;;;;;;;;;475117;250;27504;-73
2021/07/10 07:49:43;;;;;;;5.17;4.77;;;;;;;;;;475141;250;27461;-74
2021/07/10 07:51:45;;;;;;;5.00;4.60;;;;;;;;;;475134;250;27504;-73
2021/07/10 07:53:48;;;;;;;4.47;4.17;;;;;;;;;;475114;250;27429;-74
2021/07/10 07:55:49;;;;;;;4.53;4.20;;;;;;;;;;475070;250;27440;-74
2021/07/10 07:57:51;;;;;;;4.67;4.37;;;;;;;;;;475122;250;27460;-74
2021/07/10 07:59:53;;;;;;;5.90;4.70;;;;;;;;;;475123;250;27453;-74
2021/07/10 08:01:55;;;;;;;4.20;3.90;;;;;;;;;;475100;250;27549;-74
2021/07/10 08:03:57;;;;;;;4.77;4.30;;;;;;;;;;475160;250;27512;-74
2021/07/10 08:06:00;;;;;;;5.13;4.33;;;;;;;;;;475124;250;27476;-74
2021/07/10 08:08:02;;;;;;;4.10;3.80;;;;;;;;;;475102;250;27472;-74
2021/07/10 08:10:04;;;;;;;4.13;3.83;;;;;;;;;;475130;246;27464;-74
2021/07/10 08:12:06;;;;;;;4.80;4.30;;;;;;;;;;475148;250;27453;-74
2021/07/10 08:14:08;;;;;;;8.47;3.90;;;;;;;;;;475125;250;27560;-74
2021/07/10 08:16:12;;;;;;;4.27;3.83;;;;;;;;;;475130;250;27473;-74
2021/07/10 08:18:12;;;;;;;4.03;3.73;;;;;;;;;;475030;250;27469;-74
2021/07/10 08:20:15;;;;;;;4.00;3.70;;;;;;;;;;475121;250;27456;-74
2021/07/10 08:22:16;;;;;;;4.70;4.30;;;;;;;;;;475083;250;27504;-74
2021/07/10 08:24:19;;;;;;;3.90;3.60;;;;;;;;;;475110;250;27441;-74
2021/07/10 08:26:21;;;;;;;4.17;3.77;;;;;;;;;;475037;250;27457;-74
2021/07/10 08:28:23;;;;;;;4.13;3.80;;;;;;;;;;475123;250;27491;-74
2021/07/10 08:30:25;;;;;;;4.63;4.23;;;;;;;;;;475134;250;27427;-74
2021/07/10 08:32:27;;;;;;;4.37;4.07;;;;;;;;;;475122;250;27504;-74
2021/07/10 08:34:29;;;;;;;3.80;3.60;;;;;;;;;;475017;249;27417;-74
2021/07/10 08:36:31;;;;;;;3.70;3.40;;;;;;;;;;475121;250;27431;-74
2021/07/10 08:38:33;;;;;;;4.20;3.90;;;;;;;;;;475127;250;27422;-74
2021/07/10 08:40:35;;;;;;;3.93;3.60;;;;;;;;;;475096;250;28045;-74
2021/07/10 08:42:38;;;;;;;4.10;3.80;;;;;;;;;;475115;250;27425;-74
2021/07/10 08:44:40;;;;;;;4.70;4.07;;;;;;;;;;475091;250;27948;-73
2021/07/10 08:46:42;;;;;;;4.17;3.87;;;;;;;;;;475079;250;27512;-74
2021/07/10 08:48:44;;;;;;;4.00;3.70;;;;;;;;;;475095;250;28026;-74
2021/07/10 08:50:46;;;;;;;3.77;3.47;;;;;;;;;;475096;250;27433;-74
2021/07/10 08:52:48;;;;;;;3.63;3.43;;;;;;;;;;475095;250;27998;-74
2021/07/10 08:54:50;;;;;;;3.80;3.50;;;;;;;;;;475069;250;27564;-74
2021/07/10 08:56:52;;;;;;;3.90;3.60;;;;;;;;;;475121;250;27908;-74
2021/07/10 08:58:54;;;;;;;3.50;3.30;;;;;;;;;;475112;250;27524;-74
2021/07/10 09:00:57;;;;;;;3.50;3.20;;;;;;;;;;475110;250;28625;-74
2021/07/10 09:02:59;;;;;;;4.13;3.83;;;;;;;;;;475111;246;27456;-74
2021/07/10 09:05:01;;;;;;;3.70;3.50;;;;;;;;;;475114;249;28029;-74
2021/07/10 09:07:03;;;;;;;3.60;3.30;;;;;;;;;;475066;250;27587;-74
2021/07/10 09:09:07;;;;;;;3.20;3.00;;;;;;;;;;475095;248;27940;-74
2021/07/10 09:11:07;;;;;;;3.73;3.43;;;;;;;;;;474948;250;27469;-74
2021/07/10 09:13:09;;;;;;;3.13;2.93;;;;;;;;;;475095;250;28007;-74
2021/07/10 09:15:11;;;;;;;3.90;3.60;;;;;;;;;;475107;250;27567;-74
2021/07/10 09:17:14;;;;;;;3.93;3.63;;;;;;;;;;475071;250;27941;-74
2021/07/10 09:19:16;;;;;;;3.83;3.53;;;;;;;;;;475128;250;27586;-74
2021/07/10 09:21:18;;;;;;;3.63;3.33;;;;;;;;;;475088;250;27923;-74
2021/07/10 09:23:20;;;;;;;3.53;3.27;;;;;;;;;;475115;250;27472;-74
2021/07/10 09:25:23;;;;;;;3.87;3.57;;;;;;;;;;475124;250;27927;-74
2021/07/10 09:27:24;;;;;;;3.00;2.80;;;;;;;;;;475062;250;27517;-74
2021/07/10 09:29:26;;;;;;;2.90;2.70;;;;;;;;;;475087;250;28126;-74
2021/07/10 09:31:28;;;;;;;3.40;3.20;;;;;;;;;;475096;250;27540;-74
2021/07/10 09:33:30;;;;;;;3.30;3.10;;;;;;;;;;475109;250;27946;-74
2021/07/10 09:35:33;;;;;;;3.30;3.10;;;;;;;;;;475102;250;27445;-74
2021/07/10 09:37:36;;;;;;;3.13;2.93;;;;;;;;;;475117;250;27988;-75
2021/07/10 09:39:40;;;;;;;3.23;3.00;;;;;;;;;;475013;250;27440;-74
2021/07/10 09:41:39;;;;;;;4.10;3.70;;;;;;;;;;474958;250;28042;-74
2021/07/10 09:43:41;;;;;;;3.57;3.30;;;;;;;;;;475133;250;27548;-74
2021/07/10 09:45:43;;;;;;;2.87;2.67;;;;;;;;;;475149;250;27871;-74
2021/07/10 09:47:45;;;;;;;3.23;3.03;;;;;;;;;;475140;250;27440;-75
2021/07/10 09:49:47;;;;;;;3.20;3.00;;;;;;;;;;475124;250;27907;-74
2021/07/10 09:51:49;;;;;;;3.43;3.23;;;;;;;;;;475135;250;27636;-74
2021/07/10 09:53:52;;;;;;;5.30;3.17;;;;;;;;;;475115;250;27983;-74
2021/07/10 09:55:54;;;;;;;3.13;2.93;;;;;;;;;;475134;250;27555;-74
2021/07/10 09:57:56;;;;;;;3.20;3.00;;;;;;;;;;475103;250;27878;-75
2021/07/10 09:59:58;;;;;;;3.30;3.00;;;;;;;;;;475133;250;27548;-74
2021/07/10 10:02:02;;;;;;;3.27;3.07;;;;;;;;;;475097;250;27841;-74
2021/07/10 10:04:02;;;;;;;3.40;3.20;;;;;;;;;;474914;250;27452;-75
2021/07/10 10:06:04;;;;;;;3.30;3.10;;;;;;;;;;475122;250;28094;-74
2021/07/10 10:08:06;;;;;;;3.53;3.30;;;;;;;;;;475149;250;27457;-74
2021/07/10 10:10:08;;;;;;;3.50;3.30;;;;;;;;;;475097;250;28005;-74
2021/07/10 10:12:14;;;;;;;3.20;3.00;;;;;;;;;;475106;248;27474;-74
2021/07/10 10:14:16;;;;;;;3.23;3.03;;;;;;;;;;475103;250;27441;-74
2021/07/10 10:16:19;;;;;;;3.13;2.93;;;;;;;;;;475117;250;27509;-74
2021/07/10 10:18:20;;;;;;;2.80;2.60;;;;;;;;;;475053;250;27545;-74
2021/07/10 10:20:22;;;;;;;3.00;2.80;;;;;;;;;;475131;250;27512;-74
2021/07/10 10:22:24;;;;;;;3.00;2.77;;;;;;;;;;475107;250;27435;-74
2021/07/10 10:24:26;;;;;;;3.40;2.80;;;;;;;;;;475095;250;27417;-74
2021/07/10 10:26:28;;;;;;;3.37;3.17;;;;;;;;;;475112;250;27509;-74
2021/07/10 10:28:30;;;;;;;3.10;2.90;;;;;;;;;;475001;250;27456;-74
2021/07/10 10:30:33;;;;;;;3.70;3.40;;;;;;;;;;475124;250;27824;-74
2021/07/10 10:32:35;;;;;;;3.50;3.30;;;;;;;;;;475133;250;27533;-75
2021/07/10 10:34:37;;;;;;;3.60;3.30;;;;;;;;;;475103;250;27453;-74
2021/07/10 10:36:39;;;;;;;3.60;3.33;;;;;;;;;;475090;250;27449;-74
2021/07/10 10:38:41;;;;;;;4.03;3.30;;;;;;;;;;475091;250;27586;-74
2021/07/10 10:40:43;;;;;;;3.17;2.97;;;;;;;;;;475081;250;27452;-74
2021/07/10 10:42:45;;;;;;;3.00;2.80;;;;;;;;;;475072;250;27576;-74
2021/07/10 10:44:48;;;;;;;3.03;2.83;;;;;;;;;;475099;250;27515;-74
2021/07/10 10:46:51;;;;;;;3.40;3.20;;;;;;;;;;475029;250;27480;-74
2021/07/10 10:48:52;;;;;;;2.60;2.40;;;;;;;;;;475002;250;27636;-74
2021/07/10 10:50:54;;;;;;;3.30;3.00;;;;;;;;;;475114;250;27452;-74
2021/07/10 10:52:59;;;;;;;2.90;2.70;;;;;;;;;;475093;250;27477;-74
2021/07/10 10:54:58;;;;;;;2.70;2.50;;;;;;;;;;474609;250;27488;-74
2021/07/10 10:57:00;;;;;;;3.10;2.90;;;;;;;;;;475089;250;27434;-74
2021/07/10 10:59:02;;;;;;;3.10;2.80;;;;;;;;;;475105;250;27441;-74
2021/07/10 11:01:06;;;;;;;3.40;3.20;;;;;;;;;;475095;250;27529;-74
2021/07/10 11:03:06;;;;;;;3.13;2.60;;;;;;;;;;474981;250;27425;-74
2021/07/10 11:05:09;;;;;;;2.73;2.60;;;;;;;;;;475114;250;27417;-75
2021/07/10 11:07:11;;;;;;;3.20;3.00;;;;;;;;;;475106;250;27469;-75
2021/07/10 11:09:13;;;;;;;2.50;2.30;;;;;;;;;;475094;250;27460;-74
2021/07/10 11:11:15;;;;;;;2.60;2.40;;;;;;;;;;475058;250;27424;-74
2021/07/10 11:13:17;;;;;;;2.43;2.33;;;;;;;;;;475115;250;27490;-74
2021/07/10 11:15:19;;;;;;;2.40;2.20;;;;;;;;;;475086;250;27424;-74
2021/07/10 11:17:21;;;;;;;2.70;2.50;;;;;;;;;;475086;250;27440;-74
2021/07/10 11:19:23;;;;;;;3.00;2.80;;;;;;;;;;475104;250;27560;-74
2021/07/10 11:21:25;;;;;;;2.70;2.50;;;;;;;;;;475119;249;27398;-75
2021/07/10 11:23:28;;;;;;;2.80;2.60;;;;;;;;;;475100;250;27434;-74
2021/07/10 11:25:30;;;;;;;2.80;2.60;;;;;;;;;;475093;249;27435;-74
2021/07/10 11:27:32;;;;;;;3.13;2.90;;;;;;;;;;475102;249;27445;-74
2021/07/10 11:29:34;;;;;;;2.87;2.67;;;;;;;;;;475115;250;27561;-74
2021/07/10 11:31:36;;;;;;;3.43;2.83;;;;;;;;;;475107;250;27845;-75
2021/07/10 11:33:38;;;;;;;2.63;2.43;;;;;;;;;;475105;250;27651;-74
2021/07/10 11:35:44;;;;;;;2.67;2.47;;;;;;;;;;475090;250;27583;-74
2021/07/10 11:37:47;;;;;;;2.60;2.40;;;;;;;;;;474862;250;27456;-74
2021/07/10 11:39:44;;;;;;;2.40;2.20;;;;;;;;;;474296;250;27499;-74
2021/07/10 11:41:47;;;;;;;3.30;2.80;;;;;;;;;;475103;250;27578;-74
2021/07/10 11:43:49;;;;;;;2.80;2.60;;;;;;;;;;475085;250;27567;-74
2021/07/10 11:45:51;;;;;;;2.50;2.30;;;;;;;;;;475115;250;27568;-75
2021/07/10 11:47:53;;;;;;;2.43;2.33;;;;;;;;;;475122;250;27703;-74
2021/07/10 11:49:55;;;;;;;2.03;1.93;;;;;;;;;;475136;250;27799;-74
2021/07/10 11:51:57;;;;;;;2.13;2.03;;;;;;;;;;475124;250;27971;-75
2021/07/10 11:54:00;;;;;;;2.50;2.20;;;;;;;;;;475111;249;27886;-74
2021/07/10 11:56:01;;;;;;;2.47;2.37;;;;;;;;;;475087;250;27915;-74
2021/07/10 11:58:03;;;;;;;2.77;2.57;;;;;;;;;;475125;250;27712;-74
2021/07/10 12:00:06;;;;;;;3.20;2.80;;;;;;;;;;475143;250;27601;-74
2021/07/10 12:02:08;;;;;;;2.90;2.70;;;;;;;;;;475041;250;27713;-74
2021/07/10 12:04:10;;;;;;;3.00;2.80;;;;;;;;;;475010;250;28251;-74
2021/07/10 12:06:14;;;;;;;2.90;2.70;;;;;;;;;;475023;250;27833;-74
2021/07/10 12:08:14;;;;;;;5.20;3.10;;;;;;;;;;474942;250;27567;-74
2021/07/10 12:10:19;;;;;;;2.93;2.73;;;;;;;;;;475065;250;27748;-75
2021/07/10 12:12:21;;;;;;;3.53;3.23;;;;;;;;;;475073;250;27544;-74